createdAt,value
2017-12-06T00:01:03.446Z,7.40
2017-12-06T00:03:31.783Z,7.40
2017-12-06T00:06:00.128Z,7.50
2017-12-06T00:08:28.456Z,7.40
2017-12-06T00:10:56.819Z,7.50
2017-12-06T00:13:30.782Z,7.50
2017-12-06T00:16:00.247Z,7.40
2017-12-06T00:18:28.592Z,7.40
2017-12-06T00:20:56.932Z,7.40
2017-12-06T00:23:25.277Z,7.40
2017-12-06T00:25:53.616Z,7.40
2017-12-06T00:28:23.143Z,7.50
2017-12-06T00:30:51.499Z,7.40
2017-12-06T00:33:20.660Z,7.50
2017-12-06T00:35:49.246Z,7.40
2017-12-06T00:38:17.583Z,7.40
2017-12-06T00:40:45.926Z,7.50
2017-12-06T00:43:15.019Z,7.40
2017-12-06T00:45:44.241Z,7.50
2017-12-06T00:48:12.574Z,7.40
2017-12-06T00:50:40.905Z,7.40
2017-12-06T00:53:09.263Z,7.40
2017-12-06T00:55:37.607Z,7.40
2017-12-06T00:58:06.042Z,7.50
2017-12-06T01:00:34.509Z,7.50
2017-12-06T01:03:02.953Z,7.50
2017-12-06T01:05:31.311Z,7.50
2017-12-06T01:07:59.654Z,7.50
2017-12-06T01:10:28.048Z,7.50
2017-12-06T01:12:56.393Z,7.50
2017-12-06T01:15:25.544Z,7.40
2017-12-06T01:17:54.130Z,7.50
2017-12-06T01:20:22.467Z,7.40
2017-12-06T01:22:50.850Z,7.40
2017-12-06T01:25:19.248Z,7.40
2017-12-06T01:27:47.573Z,7.50
2017-12-06T01:30:16.008Z,7.40
2017-12-06T01:32:44.357Z,7.40
2017-12-06T01:35:13.505Z,7.40
2017-12-06T01:37:41.831Z,7.40
2017-12-06T01:40:10.943Z,7.50
2017-12-06T01:42:39.297Z,7.50
2017-12-06T01:45:08.399Z,7.50
2017-12-06T01:47:37.604Z,7.50
2017-12-06T01:50:06.024Z,7.50
2017-12-06T01:52:34.421Z,7.40
2017-12-06T01:55:02.772Z,7.40
2017-12-06T01:57:31.296Z,7.40
2017-12-06T02:00:00.431Z,7.40
2017-12-06T02:02:28.790Z,7.40
2017-12-06T02:04:57.892Z,7.30
2017-12-06T02:07:26.999Z,7.30
2017-12-06T02:09:55.330Z,7.30
2017-12-06T02:12:23.668Z,7.30
2017-12-06T02:14:52.148Z,7.30
2017-12-06T02:17:20.479Z,7.30
2017-12-06T02:19:48.926Z,7.30
2017-12-06T02:22:17.294Z,7.30
2017-12-06T02:24:45.791Z,7.20
2017-12-06T02:27:14.206Z,7.20
2017-12-06T02:29:42.940Z,7.30
2017-12-06T02:32:11.512Z,7.30
2017-12-06T02:34:40.620Z,7.30
2017-12-06T02:37:09.036Z,7.20
2017-12-06T02:39:49.477Z,7.20
2017-12-06T02:42:29.779Z,7.20
2017-12-06T02:45:10.155Z,7.20
2017-12-06T02:47:39.395Z,7.20
2017-12-06T02:50:07.720Z,7.20
2017-12-06T02:52:36.824Z,7.20
2017-12-06T02:55:06.047Z,7.20
2017-12-06T02:57:34.428Z,7.20
2017-12-06T03:00:02.752Z,7.20
2017-12-06T03:02:31.214Z,7.20
2017-12-06T03:04:59.558Z,7.20
2017-12-06T03:07:27.911Z,7.10
2017-12-06T03:09:57.025Z,7.20
2017-12-06T03:12:26.312Z,7.20
2017-12-06T03:14:54.619Z,7.20
2017-12-06T03:17:22.960Z,7.20
2017-12-06T03:19:51.303Z,7.10
2017-12-06T03:22:19.647Z,7.20
2017-12-06T03:24:48.054Z,7.10
2017-12-06T03:27:16.373Z,7.10
2017-12-06T03:29:44.717Z,7.10
2017-12-06T03:32:13.052Z,7.10
2017-12-06T03:34:42.175Z,7.10
2017-12-06T03:37:10.565Z,7.10
2017-12-06T03:39:38.931Z,7.10
2017-12-06T03:42:07.835Z,7.10
2017-12-06T03:44:36.200Z,7.10
2017-12-06T03:47:04.545Z,7.00
2017-12-06T03:49:32.915Z,7.10
2017-12-06T03:52:01.257Z,7.10
2017-12-06T03:54:29.631Z,7.00
2017-12-06T03:59:32.695Z,7.00
2017-12-06T04:02:01.122Z,7.00
2017-12-06T04:04:29.500Z,7.00
2017-12-06T04:06:57.855Z,7.00
2017-12-06T04:09:26.195Z,7.00
2017-12-06T04:11:54.671Z,7.00
2017-12-06T04:14:23.039Z,7.00
2017-12-06T04:16:51.385Z,7.00
2017-12-06T04:19:19.762Z,7.00
2017-12-06T04:21:48.141Z,7.00
2017-12-06T04:24:16.475Z,7.00
2017-12-06T04:26:45.634Z,7.00
2017-12-06T04:29:13.980Z,7.00
2017-12-06T04:31:42.357Z,7.10
2017-12-06T04:34:11.230Z,7.00
2017-12-06T04:36:40.324Z,7.00
2017-12-06T04:39:09.512Z,7.00
2017-12-06T04:41:38.582Z,7.00
2017-12-06T04:44:07.238Z,7.00
2017-12-06T04:46:35.577Z,7.00
2017-12-06T04:49:04.672Z,7.00
2017-12-06T04:51:33.794Z,7.10
2017-12-06T04:54:02.133Z,7.10
2017-12-06T04:56:30.580Z,7.10
2017-12-06T04:58:58.903Z,7.10
2017-12-06T05:01:27.547Z,7.10
2017-12-06T05:03:55.894Z,7.10
2017-12-06T05:06:24.978Z,7.10
2017-12-06T05:08:54.091Z,7.10
2017-12-06T05:11:22.423Z,7.10
2017-12-06T05:13:50.775Z,7.10
2017-12-06T05:16:19.118Z,7.10
2017-12-06T05:18:47.448Z,7.10
2017-12-06T05:21:15.793Z,7.10
2017-12-06T05:23:44.135Z,7.10
2017-12-06T05:26:13.273Z,7.00
2017-12-06T05:28:41.660Z,7.00
2017-12-06T05:31:09.983Z,7.00
2017-12-06T05:33:38.333Z,7.10
2017-12-06T05:36:06.720Z,7.10
2017-12-06T05:38:35.065Z,7.10
2017-12-06T05:41:03.440Z,7.10
2017-12-06T05:43:31.837Z,7.10
2017-12-06T05:46:00.184Z,7.10
2017-12-06T05:48:28.524Z,7.10
2017-12-06T05:50:56.968Z,7.10
2017-12-06T05:53:25.304Z,7.10
2017-12-06T05:55:54.399Z,7.10
2017-12-06T05:58:23.510Z,7.10
2017-12-06T06:00:51.849Z,7.10
2017-12-06T06:03:20.197Z,7.10
2017-12-06T06:05:48.535Z,7.00
2017-12-06T06:08:16.894Z,7.10
2017-12-06T06:10:45.416Z,7.10
2017-12-06T06:13:13.748Z,7.10
2017-12-06T06:15:42.082Z,7.10
2017-12-06T06:18:10.429Z,7.10
2017-12-06T06:20:38.832Z,7.10
2017-12-06T06:23:07.176Z,7.10
2017-12-06T06:25:35.508Z,7.10
2017-12-06T06:28:03.865Z,7.10
2017-12-06T06:30:32.201Z,7.10
2017-12-06T06:33:00.629Z,7.10
2017-12-06T06:35:28.958Z,7.10
2017-12-06T06:37:57.294Z,7.10
2017-12-06T06:40:25.669Z,7.10
2017-12-06T06:42:53.990Z,7.10
2017-12-06T06:45:22.439Z,7.10
2017-12-06T06:47:50.704Z,7.10
2017-12-06T06:50:19.084Z,7.10
2017-12-06T06:52:47.684Z,7.10
2017-12-06T06:55:16.019Z,7.20
2017-12-06T06:57:45.209Z,7.20
2017-12-06T07:00:14.317Z,7.20
2017-12-06T07:02:43.743Z,7.20
2017-12-06T07:05:12.088Z,7.20
2017-12-06T07:07:40.456Z,7.20
2017-12-06T07:10:08.823Z,7.20
2017-12-06T07:12:37.171Z,7.30
2017-12-06T07:15:05.645Z,7.20
2017-12-06T07:17:33.966Z,7.30
2017-12-06T07:20:02.291Z,7.30
2017-12-06T07:22:30.676Z,7.30
2017-12-06T07:24:59.060Z,7.30
2017-12-06T07:27:27.940Z,7.30
2017-12-06T07:29:56.284Z,7.30
2017-12-06T07:32:25.399Z,7.30
2017-12-06T07:34:53.928Z,7.30
2017-12-06T07:37:22.275Z,7.30
2017-12-06T07:39:50.624Z,7.30
2017-12-06T07:42:19.722Z,7.30
2017-12-06T07:44:48.847Z,7.30
2017-12-06T07:47:17.203Z,7.30
2017-12-06T07:49:46.300Z,7.30
2017-12-06T07:52:15.431Z,7.30
2017-12-06T07:54:43.789Z,7.30
2017-12-06T07:57:13.084Z,7.30
2017-12-06T07:59:42.203Z,7.30
2017-12-06T08:02:10.581Z,7.30
2017-12-06T08:04:38.928Z,7.30
2017-12-06T08:07:07.889Z,7.30
2017-12-06T08:09:36.239Z,7.30
2017-12-06T08:12:04.568Z,7.40
2017-12-06T08:14:33.137Z,7.30
2017-12-06T08:17:01.668Z,7.40
2017-12-06T08:19:30.008Z,7.40
2017-12-06T08:21:58.398Z,7.40
2017-12-06T08:24:26.790Z,7.40
2017-12-06T08:26:55.157Z,7.40
2017-12-06T08:29:23.533Z,7.40
2017-12-06T08:31:51.885Z,7.40
2017-12-06T08:34:20.276Z,7.40
2017-12-06T08:36:48.676Z,7.40
2017-12-06T08:39:17.815Z,7.40
2017-12-06T08:41:46.193Z,7.40
2017-12-06T08:44:14.563Z,7.50
2017-12-06T08:46:43.048Z,7.50
2017-12-06T08:49:11.469Z,7.50
2017-12-06T08:51:39.816Z,7.50
2017-12-06T08:54:08.163Z,7.50
2017-12-06T08:56:36.499Z,7.50
2017-12-06T08:59:04.863Z,7.50
2017-12-06T09:01:33.207Z,7.50
2017-12-06T09:04:01.548Z,7.50
2017-12-06T09:06:29.976Z,7.50
2017-12-06T09:08:58.411Z,7.50
2017-12-06T09:11:26.854Z,7.50
2017-12-06T09:13:55.261Z,7.50
2017-12-06T09:16:23.694Z,7.50
2017-12-06T09:18:52.033Z,7.50
2017-12-06T09:21:20.374Z,7.50
2017-12-06T09:23:48.857Z,7.60
2017-12-06T09:26:17.246Z,7.50
2017-12-06T09:28:45.709Z,7.60
2017-12-06T09:31:14.051Z,7.60
2017-12-06T09:33:43.147Z,7.60
2017-12-06T09:36:11.501Z,7.60
2017-12-06T09:38:39.856Z,7.60
2017-12-06T09:41:08.211Z,7.60
2017-12-06T09:43:36.648Z,7.60
2017-12-06T09:46:05.760Z,7.60
2017-12-06T09:48:34.889Z,7.60
2017-12-06T09:51:03.238Z,7.60
2017-12-06T09:53:32.362Z,7.60
2017-12-06T09:56:00.702Z,7.60
2017-12-06T09:58:29.800Z,7.60
2017-12-06T10:00:58.244Z,7.60
2017-12-06T10:03:26.594Z,7.60
2017-12-06T10:05:54.948Z,7.60
2017-12-06T10:08:24.055Z,7.60
2017-12-06T10:10:52.414Z,7.60
2017-12-06T10:13:21.624Z,7.60
2017-12-06T10:15:50.790Z,7.60
2017-12-06T10:18:19.111Z,7.60
2017-12-06T10:20:47.479Z,7.60
2017-12-06T10:23:15.863Z,7.60
2017-12-06T10:25:44.202Z,7.60
2017-12-06T10:28:12.548Z,7.60
2017-12-06T10:30:41.020Z,7.60
2017-12-06T10:33:09.364Z,7.60
2017-12-06T10:35:37.746Z,7.60
2017-12-06T10:38:06.850Z,7.70
2017-12-06T10:40:35.969Z,7.70
2017-12-06T10:43:04.320Z,7.60
2017-12-06T10:45:33.435Z,7.60
2017-12-06T10:48:01.814Z,7.60
2017-12-06T10:50:30.215Z,7.70
2017-12-06T10:52:58.778Z,7.70
2017-12-06T10:55:27.118Z,7.70
2017-12-06T10:57:55.477Z,7.70
2017-12-06T11:00:25.743Z,7.70
2017-12-06T11:02:54.094Z,7.70
2017-12-06T11:05:22.458Z,7.70
2017-12-06T11:07:50.795Z,7.60
2017-12-06T11:10:19.346Z,7.70
2017-12-06T11:12:47.725Z,7.60
2017-12-06T11:15:16.147Z,7.70
2017-12-06T11:17:44.516Z,7.70
2017-12-06T11:20:12.868Z,7.70
2017-12-06T11:22:42.001Z,7.70
2017-12-06T11:25:10.351Z,7.70
2017-12-06T11:27:39.481Z,7.70
2017-12-06T11:30:07.856Z,7.70
2017-12-06T11:32:36.193Z,7.70
2017-12-06T11:35:05.332Z,7.70
2017-12-06T11:37:33.697Z,7.70
2017-12-06T11:40:02.083Z,7.70
2017-12-06T11:42:30.451Z,7.70
2017-12-06T11:44:58.796Z,7.80
2017-12-06T11:47:27.147Z,7.70
2017-12-06T11:49:55.498Z,7.70
2017-12-06T11:52:23.831Z,7.70
2017-12-06T11:54:52.191Z,7.70
2017-12-06T11:57:20.541Z,7.70
2017-12-06T11:59:48.884Z,7.70
2017-12-06T12:02:18.060Z,7.70
2017-12-06T12:04:46.406Z,7.80
2017-12-06T12:07:15.084Z,7.80
2017-12-06T12:09:43.525Z,7.80
2017-12-06T12:12:12.647Z,7.80
2017-12-06T12:14:41.044Z,7.80
2017-12-06T12:17:09.419Z,7.80
2017-12-06T12:19:37.746Z,7.70
2017-12-06T12:22:06.088Z,7.80
2017-12-06T12:24:34.580Z,7.80
2017-12-06T12:27:02.911Z,7.70
2017-12-06T12:29:31.345Z,7.70
2017-12-06T12:31:59.730Z,7.70
2017-12-06T12:34:28.048Z,7.70
2017-12-06T12:36:56.444Z,7.70
2017-12-06T12:39:24.845Z,7.70
2017-12-06T12:41:54.213Z,7.70
2017-12-06T12:44:23.324Z,7.70
2017-12-06T12:46:51.664Z,7.70
2017-12-06T12:49:20.393Z,7.70
2017-12-06T12:51:48.717Z,7.70
2017-12-06T12:54:17.098Z,7.70
2017-12-06T12:56:45.432Z,7.70
2017-12-06T12:59:13.767Z,7.70
2017-12-06T13:01:42.401Z,7.70
2017-12-06T13:04:10.741Z,7.70
2017-12-06T13:06:39.123Z,7.70
2017-12-06T13:09:08.232Z,7.70
2017-12-06T13:11:36.564Z,7.70
2017-12-06T13:14:05.005Z,7.70
2017-12-06T13:16:33.548Z,7.70
2017-12-06T13:19:01.909Z,7.80
2017-12-06T13:21:30.244Z,7.70
2017-12-06T13:23:58.583Z,7.80
2017-12-06T13:26:27.700Z,7.80
2017-12-06T13:28:56.793Z,7.70
2017-12-06T13:31:26.030Z,7.80
2017-12-06T13:33:54.376Z,7.80
2017-12-06T13:36:22.784Z,7.80
2017-12-06T13:38:51.120Z,7.80
2017-12-06T13:41:20.228Z,7.80
2017-12-06T13:43:48.599Z,7.80
2017-12-06T13:46:17.748Z,7.80
2017-12-06T13:48:46.100Z,7.80
2017-12-06T13:51:14.433Z,7.80
2017-12-06T13:53:42.763Z,7.80
2017-12-06T13:56:11.124Z,7.80
2017-12-06T13:58:39.515Z,7.90
2017-12-06T14:01:07.861Z,7.90
2017-12-06T14:03:37.153Z,7.90
2017-12-06T14:06:05.550Z,7.90
2017-12-06T14:08:34.679Z,7.90
2017-12-06T14:11:03.140Z,7.90
2017-12-06T14:13:31.532Z,7.90
2017-12-06T14:15:59.922Z,7.90
2017-12-06T14:18:28.462Z,7.90
2017-12-06T14:20:56.819Z,7.90
2017-12-06T14:23:25.208Z,7.90
2017-12-06T14:25:53.564Z,8.00
2017-12-06T14:28:21.934Z,8.00
2017-12-06T14:30:50.249Z,8.00
2017-12-06T14:33:19.397Z,8.00
2017-12-06T14:35:47.778Z,8.00
2017-12-06T14:38:16.471Z,8.00
2017-12-06T14:40:44.891Z,8.00
2017-12-06T14:43:13.278Z,8.00
2017-12-06T14:45:41.690Z,8.00
2017-12-06T14:48:10.159Z,8.00
2017-12-06T14:50:38.896Z,8.00
2017-12-06T14:53:07.267Z,8.00
2017-12-06T14:55:35.603Z,8.00
2017-12-06T14:58:03.985Z,8.00
2017-12-06T15:00:32.339Z,8.00
2017-12-06T15:03:00.972Z,7.90
2017-12-06T15:05:29.306Z,7.90
2017-12-06T15:07:58.440Z,7.90
2017-12-06T15:10:26.812Z,7.90
2017-12-06T15:12:55.199Z,7.90
2017-12-06T15:15:23.552Z,7.90
2017-12-06T15:17:51.889Z,8.00
2017-12-06T15:20:20.245Z,7.90
2017-12-06T15:22:48.631Z,7.90
2017-12-06T15:25:17.029Z,8.00
2017-12-06T15:27:45.378Z,7.90
2017-12-06T15:30:13.749Z,8.00
2017-12-06T15:32:42.130Z,8.00
2017-12-06T15:35:10.584Z,7.90
2017-12-06T15:37:39.734Z,7.90
2017-12-06T15:40:08.161Z,7.90
2017-12-06T15:42:36.640Z,8.00
2017-12-06T15:45:05.772Z,7.90
2017-12-06T15:47:34.397Z,7.90
2017-12-06T15:50:02.734Z,8.00
2017-12-06T15:52:31.171Z,8.00
2017-12-06T15:54:59.567Z,8.00
2017-12-06T15:57:27.960Z,8.00
2017-12-06T15:59:56.411Z,8.00
2017-12-06T16:02:24.850Z,8.00
2017-12-06T16:04:53.203Z,8.00
2017-12-06T16:07:21.641Z,8.00
2017-12-06T16:09:49.991Z,8.00
2017-12-06T16:12:18.312Z,8.00
2017-12-06T16:14:46.721Z,8.00
2017-12-06T16:17:15.053Z,8.00
2017-12-06T16:19:43.398Z,8.00
2017-12-06T16:22:11.740Z,8.10
2017-12-06T16:24:40.072Z,8.10
2017-12-06T16:27:08.434Z,8.10
2017-12-06T16:29:36.753Z,8.00
2017-12-06T16:32:05.859Z,8.00
2017-12-06T16:34:35.030Z,8.10
2017-12-06T16:37:15.428Z,8.10
2017-12-06T16:39:44.550Z,8.10
2017-12-06T16:42:12.880Z,8.00
2017-12-06T16:44:41.214Z,8.10
2017-12-06T16:47:09.683Z,8.10
2017-12-06T16:49:38.054Z,8.10
2017-12-06T16:52:06.450Z,8.10
2017-12-06T16:54:34.793Z,8.10
2017-12-06T16:57:03.888Z,8.10
2017-12-06T16:59:32.241Z,8.10
2017-12-06T17:02:00.567Z,8.10
2017-12-06T17:04:29.001Z,8.10
2017-12-06T17:06:57.319Z,8.10
2017-12-06T17:09:25.710Z,8.10
2017-12-06T17:11:54.085Z,8.10
2017-12-06T17:14:22.426Z,8.20
2017-12-06T17:16:50.772Z,8.10
2017-12-06T17:19:19.117Z,8.10
2017-12-06T17:21:47.518Z,8.10
2017-12-06T17:24:15.885Z,8.10
2017-12-06T17:26:44.272Z,8.10
2017-12-06T17:29:24.472Z,8.10
2017-12-06T17:31:52.820Z,8.10
2017-12-06T17:34:21.162Z,8.20
2017-12-06T17:36:49.508Z,8.20
2017-12-06T17:39:17.863Z,8.20
2017-12-06T17:41:46.194Z,8.20
2017-12-06T17:44:14.714Z,8.20
2017-12-06T17:46:43.122Z,8.10
2017-12-06T17:49:11.531Z,8.20
2017-12-06T17:51:40.611Z,8.10
2017-12-06T17:54:08.967Z,8.10
2017-12-06T17:56:37.316Z,8.10
2017-12-06T17:59:05.689Z,8.10
2017-12-06T18:01:33.999Z,8.10
2017-12-06T18:04:02.447Z,8.10
2017-12-06T18:06:30.796Z,8.10
2017-12-06T18:08:59.215Z,8.10
2017-12-06T18:11:27.735Z,8.20
2017-12-06T18:13:56.169Z,8.10
2017-12-06T18:16:24.531Z,8.10
2017-12-06T18:18:52.927Z,8.10
2017-12-06T18:21:21.262Z,8.10
2017-12-06T18:23:49.614Z,8.20
2017-12-06T18:26:17.959Z,8.20
2017-12-06T18:28:46.530Z,8.20
2017-12-06T18:31:14.860Z,8.20
2017-12-06T18:33:43.192Z,8.20
2017-12-06T18:36:11.579Z,8.20
2017-12-06T18:38:39.903Z,8.20
2017-12-06T18:41:12.393Z,8.20
2017-12-06T18:43:40.726Z,8.20
2017-12-06T18:46:09.083Z,8.20
2017-12-06T18:48:37.432Z,8.20
2017-12-06T18:51:05.800Z,8.20
2017-12-06T18:53:34.161Z,8.20
2017-12-06T18:56:03.237Z,8.20
2017-12-06T18:58:32.272Z,8.20
2017-12-06T19:01:00.603Z,8.20
2017-12-06T19:03:28.938Z,8.20
2017-12-06T19:05:58.056Z,8.20
2017-12-06T19:08:26.444Z,8.20
2017-12-06T19:10:54.913Z,8.20
2017-12-06T19:13:24.044Z,8.20
2017-12-06T19:15:55.285Z,8.20
2017-12-06T19:18:26.563Z,8.30
2017-12-06T19:20:54.941Z,8.20
2017-12-06T19:23:24.222Z,8.20
2017-12-06T19:25:52.642Z,8.20
2017-12-06T19:28:20.933Z,8.20
2017-12-06T19:30:49.287Z,8.20
2017-12-06T19:33:17.613Z,8.20
2017-12-06T19:35:45.976Z,8.20
2017-12-06T19:38:14.475Z,8.20
2017-12-06T19:40:42.867Z,8.20
2017-12-06T19:43:11.419Z,8.20
2017-12-06T19:45:39.919Z,8.20
2017-12-06T19:48:08.367Z,8.20
2017-12-06T19:50:37.974Z,8.20
2017-12-06T19:53:07.084Z,8.20
2017-12-06T19:55:36.350Z,8.20
2017-12-06T19:58:05.544Z,8.20
2017-12-06T20:00:33.936Z,8.20
2017-12-06T20:03:02.269Z,8.20
2017-12-06T20:05:30.647Z,8.20
2017-12-06T20:07:59.037Z,8.30
2017-12-06T20:10:27.399Z,8.20
2017-12-06T20:12:55.752Z,8.20
2017-12-06T20:15:24.941Z,8.20
2017-12-06T20:17:53.290Z,8.20
2017-12-06T20:20:21.629Z,8.20
2017-12-06T20:22:49.976Z,8.20
2017-12-06T20:25:19.272Z,8.20
2017-12-06T20:27:48.583Z,8.20
2017-12-06T20:30:17.316Z,8.20
2017-12-06T20:32:46.546Z,8.20
2017-12-06T20:35:14.902Z,8.30
2017-12-06T20:37:43.548Z,8.20
2017-12-06T20:40:12.737Z,8.20
2017-12-06T20:42:42.099Z,8.20
2017-12-06T20:45:10.445Z,8.20
2017-12-06T20:47:39.832Z,8.30
2017-12-06T20:50:08.976Z,8.30
2017-12-06T20:52:37.459Z,8.30
2017-12-06T20:55:05.843Z,8.30
2017-12-06T20:57:34.323Z,8.40
2017-12-06T21:00:02.722Z,8.40
2017-12-06T21:02:31.050Z,8.40
2017-12-06T21:04:59.543Z,8.40
2017-12-06T21:07:27.893Z,8.30
2017-12-06T21:09:56.506Z,8.40
2017-12-06T21:12:24.919Z,8.40
2017-12-06T21:14:53.289Z,8.40
2017-12-06T21:17:21.586Z,8.40
2017-12-06T21:19:50.708Z,8.40
2017-12-06T21:22:19.076Z,8.40
2017-12-06T21:24:48.194Z,8.40
2017-12-06T21:27:16.540Z,8.40
2017-12-06T21:29:44.921Z,8.50
2017-12-06T21:32:13.275Z,8.50
2017-12-06T21:34:41.647Z,8.40
2017-12-06T21:37:10.085Z,8.40
2017-12-06T21:39:38.589Z,8.50
2017-12-06T21:42:06.939Z,8.50
2017-12-06T21:44:36.045Z,8.50
2017-12-06T21:47:04.375Z,8.50
2017-12-06T21:49:33.638Z,8.50
2017-12-06T21:52:01.956Z,8.50
2017-12-06T21:54:30.481Z,8.50
2017-12-06T21:56:58.837Z,8.50
2017-12-06T21:59:27.931Z,8.50
2017-12-06T22:01:57.088Z,8.50
2017-12-06T22:04:25.416Z,8.50
2017-12-06T22:06:54.525Z,8.50
2017-12-06T22:09:22.862Z,8.50
2017-12-06T22:11:51.201Z,8.60
2017-12-06T22:14:19.628Z,8.60
2017-12-06T22:16:48.064Z,8.60
2017-12-06T22:19:16.437Z,8.50
2017-12-06T22:21:44.778Z,8.60
2017-12-06T22:24:13.913Z,8.60
2017-12-06T22:26:42.264Z,8.60
2017-12-06T22:29:10.667Z,8.60
2017-12-06T22:31:39.009Z,8.60
2017-12-06T22:34:08.116Z,8.60
2017-12-06T22:36:36.448Z,8.50
2017-12-06T22:39:04.779Z,8.50
2017-12-06T22:41:33.140Z,8.50
2017-12-06T22:44:01.604Z,8.50
2017-12-06T22:46:29.932Z,8.50
2017-12-06T22:48:58.255Z,8.50
2017-12-06T22:51:26.630Z,8.50
2017-12-06T22:53:54.982Z,8.50
2017-12-06T22:56:23.380Z,8.50
2017-12-06T22:58:51.721Z,8.40
2017-12-06T23:01:20.122Z,8.40
2017-12-06T23:03:48.510Z,8.30
2017-12-06T23:06:16.829Z,8.40
2017-12-06T23:08:46.060Z,8.30
2017-12-06T23:11:14.476Z,8.30
2017-12-06T23:13:42.856Z,8.30
2017-12-06T23:16:11.236Z,8.30
2017-12-06T23:18:39.567Z,8.30
2017-12-06T23:21:07.969Z,8.30
2017-12-06T23:23:36.356Z,8.20
2017-12-06T23:26:04.769Z,8.20
2017-12-06T23:28:33.130Z,8.20
2017-12-06T23:31:01.510Z,8.20
2017-12-06T23:33:29.862Z,8.30
2017-12-06T23:35:58.207Z,7.70
2017-12-06T23:38:27.356Z,8.20
2017-12-06T23:40:55.831Z,8.20
2017-12-06T23:43:24.207Z,8.20
2017-12-06T23:45:52.576Z,8.10
2017-12-06T23:48:20.974Z,8.10
2017-12-06T23:50:49.701Z,8.10
2017-12-06T23:53:18.128Z,8.20
2017-12-06T23:55:46.641Z,8.10
2017-12-06T23:58:15.020Z,8.10
